sensor_id;sensor_type;location;lat;lon;timestamp;temperature;humidity
34698;DHT22;61391;50.922;6.928;2023-05-20T00:00:29;15.40;99.90
34698;DHT22;61391;50.922;6.928;2023-05-20T00:02:55;15.30;99.90
34698;DHT22;61391;50.922;6.928;2023-05-20T00:05:22;15.30;99.90
34698;DHT22;61391;50.922;6.928;2023-05-20T00:07:47;15.30;99.90
34698;DHT22;61391;50.922;6.928;2023-05-20T00:10:13;15.30;99.90
34698;DHT22;61391;50.922;6.928;2023-05-20T00:12:39;15.40;99.90
34698;DHT22;61391;50.922;6.928;2023-05-20T00:15:05;15.40;99.90
34698;DHT22;61391;50.922;6.928;2023-05-20T00:17:31;15.20;99.90
34698;DHT22;61391;50.922;6.928;2023-05-20T00:19:56;15.20;99.90
34698;DHT22;61391;50.922;6.928;2023-05-20T00:22:22;15.30;99.90
34698;DHT22;61391;50.922;6.928;2023-05-20T00:24:48;15.30;99.90
34698;DHT22;61391;50.922;6.928;2023-05-20T00:27:13;15.40;99.90
34698;DHT22;61391;50.922;6.928;2023-05-20T00:29:39;15.40;99.90
34698;DHT22;61391;50.922;6.928;2023-05-20T00:32:05;15.30;99.90
34698;DHT22;61391;50.922;6.928;2023-05-20T00:34:30;15.30;99.90
34698;DHT22;61391;50.922;6.928;2023-05-20T00:36:56;15.30;99.90
34698;DHT22;61391;50.922;6.928;2023-05-20T00:39:21;15.30;99.90
34698;DHT22;61391;50.922;6.928;2023-05-20T00:41:47;15.30;99.90
34698;DHT22;61391;50.922;6.928;2023-05-20T00:44:13;15.20;99.90
34698;DHT22;61391;50.922;6.928;2023-05-20T00:46:39;15.30;99.90
34698;DHT22;61391;50.922;6.928;2023-05-20T00:49:05;15.30;99.90
34698;DHT22;61391;50.922;6.928;2023-05-20T00:51:31;15.50;99.90
34698;DHT22;61391;50.922;6.928;2023-05-20T00:53:57;15.50;99.90
34698;DHT22;61391;50.922;6.928;2023-05-20T00:59:45;15.30;99.90
34698;DHT22;61391;50.922;6.928;2023-05-20T01:02:11;15.30;99.90
34698;DHT22;61391;50.922;6.928;2023-05-20T01:04:37;15.30;99.90
34698;DHT22;61391;50.922;6.928;2023-05-20T01:07:03;15.30;99.90
34698;DHT22;61391;50.922;6.928;2023-05-20T01:09:30;15.30;99.90
34698;DHT22;61391;50.922;6.928;2023-05-20T01:12:22;15.20;99.90
34698;DHT22;61391;50.922;6.928;2023-05-20T01:15:12;15.40;99.90
34698;DHT22;61391;50.922;6.928;2023-05-20T01:17:42;15.20;99.90
34698;DHT22;61391;50.922;6.928;2023-05-20T01:20:09;15.20;99.90
34698;DHT22;61391;50.922;6.928;2023-05-20T01:22:46;15.20;99.90
34698;DHT22;61391;50.922;6.928;2023-05-20T01:25:11;15.20;99.90
34698;DHT22;61391;50.922;6.928;2023-05-20T01:27:37;15.20;99.90
34698;DHT22;61391;50.922;6.928;2023-05-20T01:30:03;15.30;99.90
34698;DHT22;61391;50.922;6.928;2023-05-20T01:32:37;15.20;99.90
34698;DHT22;61391;50.922;6.928;2023-05-20T01:35:03;15.10;99.90
34698;DHT22;61391;50.922;6.928;2023-05-20T01:37:30;15.20;99.90
34698;DHT22;61391;50.922;6.928;2023-05-20T01:39:57;15.20;99.90
34698;DHT22;61391;50.922;6.928;2023-05-20T01:42:25;15.10;99.90
34698;DHT22;61391;50.922;6.928;2023-05-20T01:44:51;15.20;99.90
34698;DHT22;61391;50.922;6.928;2023-05-20T01:47:17;15.30;99.90
34698;DHT22;61391;50.922;6.928;2023-05-20T01:49:42;15.40;99.90
34698;DHT22;61391;50.922;6.928;2023-05-20T01:52:10;15.30;99.90
34698;DHT22;61391;50.922;6.928;2023-05-20T01:54:36;15.30;99.90
34698;DHT22;61391;50.922;6.928;2023-05-20T01:57:02;15.20;99.90
34698;DHT22;61391;50.922;6.928;2023-05-20T01:59:27;15.10;99.90
34698;DHT22;61391;50.922;6.928;2023-05-20T02:01:53;15.20;99.90
34698;DHT22;61391;50.922;6.928;2023-05-20T02:04:19;15.30;99.90
34698;DHT22;61391;50.922;6.928;2023-05-20T02:06:45;15.30;99.90
34698;DHT22;61391;50.922;6.928;2023-05-20T02:09:11;15.10;99.90
34698;DHT22;61391;50.922;6.928;2023-05-20T02:11:37;15.00;99.90
34698;DHT22;61391;50.922;6.928;2023-05-20T02:14:02;15.10;99.90
34698;DHT22;61391;50.922;6.928;2023-05-20T02:16:28;15.10;99.90
34698;DHT22;61391;50.922;6.928;2023-05-20T02:18:53;15.10;99.90
34698;DHT22;61391;50.922;6.928;2023-05-20T02:21:20;15.20;99.90
34698;DHT22;61391;50.922;6.928;2023-05-20T02:23:46;15.10;99.90
34698;DHT22;61391;50.922;6.928;2023-05-20T02:26:12;15.20;99.90
34698;DHT22;61391;50.922;6.928;2023-05-20T02:28:37;15.10;99.90
34698;DHT22;61391;50.922;6.928;2023-05-20T02:31:07;15.10;99.90
34698;DHT22;61391;50.922;6.928;2023-05-20T02:33:33;15.10;99.90
34698;DHT22;61391;50.922;6.928;2023-05-20T02:35:59;14.90;99.90
34698;DHT22;61391;50.922;6.928;2023-05-20T02:38:24;15.00;99.90
34698;DHT22;61391;50.922;6.928;2023-05-20T02:40:50;15.00;99.90
34698;DHT22;61391;50.922;6.928;2023-05-20T02:43:16;15.10;99.90
34698;DHT22;61391;50.922;6.928;2023-05-20T02:45:41;14.90;99.90
34698;DHT22;61391;50.922;6.928;2023-05-20T02:48:07;14.80;99.90
34698;DHT22;61391;50.922;6.928;2023-05-20T02:50:33;14.90;99.90
34698;DHT22;61391;50.922;6.928;2023-05-20T02:52:58;14.80;99.90
34698;DHT22;61391;50.922;6.928;2023-05-20T02:55:24;14.60;99.90
34698;DHT22;61391;50.922;6.928;2023-05-20T02:57:49;14.60;99.90
34698;DHT22;61391;50.922;6.928;2023-05-20T03:00:15;14.50;99.90
34698;DHT22;61391;50.922;6.928;2023-05-20T03:06:02;14.60;99.90
34698;DHT22;61391;50.922;6.928;2023-05-20T03:08:28;14.60;99.90
34698;DHT22;61391;50.922;6.928;2023-05-20T03:10:54;14.50;99.90
34698;DHT22;61391;50.922;6.928;2023-05-20T03:13:19;14.50;99.90
34698;DHT22;61391;50.922;6.928;2023-05-20T03:15:45;14.50;99.90
34698;DHT22;61391;50.922;6.928;2023-05-20T03:18:11;14.50;99.90
34698;DHT22;61391;50.922;6.928;2023-05-20T03:20:40;14.50;99.90
34698;DHT22;61391;50.922;6.928;2023-05-20T03:23:07;14.50;99.90
34698;DHT22;61391;50.922;6.928;2023-05-20T03:25:32;14.40;99.90
34698;DHT22;61391;50.922;6.928;2023-05-20T03:27:58;14.50;99.90
34698;DHT22;61391;50.922;6.928;2023-05-20T03:30:24;14.50;99.90
34698;DHT22;61391;50.922;6.928;2023-05-20T03:32:50;14.50;99.90
34698;DHT22;61391;50.922;6.928;2023-05-20T03:35:16;14.30;99.90
34698;DHT22;61391;50.922;6.928;2023-05-20T03:37:42;14.30;99.90
34698;DHT22;61391;50.922;6.928;2023-05-20T03:40:08;14.30;99.90
34698;DHT22;61391;50.922;6.928;2023-05-20T03:42:37;14.30;99.90
34698;DHT22;61391;50.922;6.928;2023-05-20T03:45:04;14.40;99.90
34698;DHT22;61391;50.922;6.928;2023-05-20T03:47:30;14.20;99.90
34698;DHT22;61391;50.922;6.928;2023-05-20T03:49:56;14.00;99.90
34698;DHT22;61391;50.922;6.928;2023-05-20T03:52:22;14.10;99.90
34698;DHT22;61391;50.922;6.928;2023-05-20T03:54:48;14.20;99.90
34698;DHT22;61391;50.922;6.928;2023-05-20T03:57:14;14.20;99.90
34698;DHT22;61391;50.922;6.928;2023-05-20T03:59:40;14.20;99.90
34698;DHT22;61391;50.922;6.928;2023-05-20T04:02:07;14.30;99.90
34698;DHT22;61391;50.922;6.928;2023-05-20T04:04:33;14.40;99.90
34698;DHT22;61391;50.922;6.928;2023-05-20T04:06:58;14.40;99.90
34698;DHT22;61391;50.922;6.928;2023-05-20T04:09:29;14.40;99.90
34698;DHT22;61391;50.922;6.928;2023-05-20T04:11:54;14.30;99.90
34698;DHT22;61391;50.922;6.928;2023-05-20T04:14:20;14.40;99.90
34698;DHT22;61391;50.922;6.928;2023-05-20T04:16:46;14.30;99.90
34698;DHT22;61391;50.922;6.928;2023-05-20T04:19:11;14.40;99.90
34698;DHT22;61391;50.922;6.928;2023-05-20T04:24:59;14.40;99.90
34698;DHT22;61391;50.922;6.928;2023-05-20T04:27:27;14.40;99.90
34698;DHT22;61391;50.922;6.928;2023-05-20T04:29:54;14.40;99.90
34698;DHT22;61391;50.922;6.928;2023-05-20T04:32:19;14.40;99.90
34698;DHT22;61391;50.922;6.928;2023-05-20T04:34:45;14.50;99.90
34698;DHT22;61391;50.922;6.928;2023-05-20T04:37:12;14.50;99.90
34698;DHT22;61391;50.922;6.928;2023-05-20T04:39:38;14.50;99.90
34698;DHT22;61391;50.922;6.928;2023-05-20T04:42:07;14.50;99.90
34698;DHT22;61391;50.922;6.928;2023-05-20T04:44:33;14.50;99.90
34698;DHT22;61391;50.922;6.928;2023-05-20T04:46:59;14.60;99.90
34698;DHT22;61391;50.922;6.928;2023-05-20T04:49:25;14.70;99.90
34698;DHT22;61391;50.922;6.928;2023-05-20T04:51:51;14.80;99.90
34698;DHT22;61391;50.922;6.928;2023-05-20T04:54:17;14.90;99.90
34698;DHT22;61391;50.922;6.928;2023-05-20T04:56:44;14.80;99.90
34698;DHT22;61391;50.922;6.928;2023-05-20T04:59:12;14.90;99.90
34698;DHT22;61391;50.922;6.928;2023-05-20T05:01:38;14.90;99.90
34698;DHT22;61391;50.922;6.928;2023-05-20T05:04:04;15.00;99.90
34698;DHT22;61391;50.922;6.928;2023-05-20T05:06:29;15.10;99.90
34698;DHT22;61391;50.922;6.928;2023-05-20T05:08:55;15.10;99.90
34698;DHT22;61391;50.922;6.928;2023-05-20T05:11:20;15.20;99.90
34698;DHT22;61391;50.922;6.928;2023-05-20T05:13:46;15.30;99.90
34698;DHT22;61391;50.922;6.928;2023-05-20T05:16:12;15.30;99.90
34698;DHT22;61391;50.922;6.928;2023-05-20T05:18:37;15.40;99.90
34698;DHT22;61391;50.922;6.928;2023-05-20T05:24:38;15.70;99.90
34698;DHT22;61391;50.922;6.928;2023-05-20T05:27:03;15.90;99.90
34698;DHT22;61391;50.922;6.928;2023-05-20T05:29:29;15.90;99.90
34698;DHT22;61391;50.922;6.928;2023-05-20T05:31:54;16.10;99.90
34698;DHT22;61391;50.922;6.928;2023-05-20T05:34:20;16.30;99.90
34698;DHT22;61391;50.922;6.928;2023-05-20T05:36:46;16.20;99.90
34698;DHT22;61391;50.922;6.928;2023-05-20T05:39:11;16.40;99.90
34698;DHT22;61391;50.922;6.928;2023-05-20T05:41:37;16.70;99.90
34698;DHT22;61391;50.922;6.928;2023-05-20T05:44:03;16.80;99.90
34698;DHT22;61391;50.922;6.928;2023-05-20T05:46:29;16.90;99.90
34698;DHT22;61391;50.922;6.928;2023-05-20T05:48:55;17.00;99.90
34698;DHT22;61391;50.922;6.928;2023-05-20T05:51:23;17.10;99.90
34698;DHT22;61391;50.922;6.928;2023-05-20T05:53:49;17.30;99.90
34698;DHT22;61391;50.922;6.928;2023-05-20T05:56:15;17.40;99.90
34698;DHT22;61391;50.922;6.928;2023-05-20T05:58:41;17.50;99.90
34698;DHT22;61391;50.922;6.928;2023-05-20T06:01:06;17.70;99.90
34698;DHT22;61391;50.922;6.928;2023-05-20T06:03:32;17.80;99.90
34698;DHT22;61391;50.922;6.928;2023-05-20T06:05:57;17.90;99.90
34698;DHT22;61391;50.922;6.928;2023-05-20T06:08:23;18.10;99.90
34698;DHT22;61391;50.922;6.928;2023-05-20T06:10:50;18.00;99.90
34698;DHT22;61391;50.922;6.928;2023-05-20T06:13:16;18.00;99.90
34698;DHT22;61391;50.922;6.928;2023-05-20T06:15:42;18.10;99.90
34698;DHT22;61391;50.922;6.928;2023-05-20T06:18:07;18.20;99.90
34698;DHT22;61391;50.922;6.928;2023-05-20T06:20:33;18.00;99.90
34698;DHT22;61391;50.922;6.928;2023-05-20T06:22:58;18.10;99.90
34698;DHT22;61391;50.922;6.928;2023-05-20T06:25:24;18.00;99.90
34698;DHT22;61391;50.922;6.928;2023-05-20T06:27:50;18.20;99.90
34698;DHT22;61391;50.922;6.928;2023-05-20T06:30:16;18.20;99.90
34698;DHT22;61391;50.922;6.928;2023-05-20T06:32:48;18.20;99.90
34698;DHT22;61391;50.922;6.928;2023-05-20T06:35:14;18.40;99.90
34698;DHT22;61391;50.922;6.928;2023-05-20T06:37:39;18.00;99.90
34698;DHT22;61391;50.922;6.928;2023-05-20T06:40:06;17.90;99.90
34698;DHT22;61391;50.922;6.928;2023-05-20T06:42:31;17.80;99.90
34698;DHT22;61391;50.922;6.928;2023-05-20T06:44:58;17.50;99.90
34698;DHT22;61391;50.922;6.928;2023-05-20T06:47:24;17.70;99.90
34698;DHT22;61391;50.922;6.928;2023-05-20T06:49:50;18.00;99.90
34698;DHT22;61391;50.922;6.928;2023-05-20T06:52:15;18.50;99.90
34698;DHT22;61391;50.922;6.928;2023-05-20T06:54:41;18.40;99.90
34698;DHT22;61391;50.922;6.928;2023-05-20T06:57:07;18.10;99.90
34698;DHT22;61391;50.922;6.928;2023-05-20T07:02:55;18.20;99.90
34698;DHT22;61391;50.922;6.928;2023-05-20T07:05:21;18.40;99.90
34698;DHT22;61391;50.922;6.928;2023-05-20T07:07:48;18.50;99.90
34698;DHT22;61391;50.922;6.928;2023-05-20T07:13:37;20.30;99.90
34698;DHT22;61391;50.922;6.928;2023-05-20T07:16:03;20.70;99.90
34698;DHT22;61391;50.922;6.928;2023-05-20T07:18:29;20.00;99.90
34698;DHT22;61391;50.922;6.928;2023-05-20T07:20:54;20.30;99.90
34698;DHT22;61391;50.922;6.928;2023-05-20T07:23:22;20.90;99.90
34698;DHT22;61391;50.922;6.928;2023-05-20T07:25:48;20.50;99.90
34698;DHT22;61391;50.922;6.928;2023-05-20T07:28:18;21.10;99.90
34698;DHT22;61391;50.922;6.928;2023-05-20T07:30:44;22.00;99.90
34698;DHT22;61391;50.922;6.928;2023-05-20T07:33:15;22.70;99.90
34698;DHT22;61391;50.922;6.928;2023-05-20T07:35:41;22.40;99.90
34698;DHT22;61391;50.922;6.928;2023-05-20T07:38:07;21.60;99.90
34698;DHT22;61391;50.922;6.928;2023-05-20T07:40:32;21.40;99.90
34698;DHT22;61391;50.922;6.928;2023-05-20T07:42:58;21.10;99.90
34698;DHT22;61391;50.922;6.928;2023-05-20T07:45:24;21.30;99.90
34698;DHT22;61391;50.922;6.928;2023-05-20T07:47:50;21.40;99.90
34698;DHT22;61391;50.922;6.928;2023-05-20T07:50:15;21.80;99.90
34698;DHT22;61391;50.922;6.928;2023-05-20T07:52:41;22.40;99.90
34698;DHT22;61391;50.922;6.928;2023-05-20T07:55:07;21.20;99.90
34698;DHT22;61391;50.922;6.928;2023-05-20T07:57:32;20.00;99.90
34698;DHT22;61391;50.922;6.928;2023-05-20T07:59:58;19.90;99.90
34698;DHT22;61391;50.922;6.928;2023-05-20T08:02:24;20.40;99.90
34698;DHT22;61391;50.922;6.928;2023-05-20T08:04:49;20.90;99.90
34698;DHT22;61391;50.922;6.928;2023-05-20T08:07:15;20.80;99.90
34698;DHT22;61391;50.922;6.928;2023-05-20T08:09:40;21.20;99.90
34698;DHT22;61391;50.922;6.928;2023-05-20T08:12:06;20.90;99.90
34698;DHT22;61391;50.922;6.928;2023-05-20T08:14:32;19.70;99.90
34698;DHT22;61391;50.922;6.928;2023-05-20T08:16:58;20.00;99.90
34698;DHT22;61391;50.922;6.928;2023-05-20T08:19:24;20.00;99.90
34698;DHT22;61391;50.922;6.928;2023-05-20T08:21:50;19.50;99.90
34698;DHT22;61391;50.922;6.928;2023-05-20T08:24:15;19.50;99.90
34698;DHT22;61391;50.922;6.928;2023-05-20T08:26:41;19.10;99.90
34698;DHT22;61391;50.922;6.928;2023-05-20T08:29:06;19.20;99.90
34698;DHT22;61391;50.922;6.928;2023-05-20T08:31:32;19.50;99.90
34698;DHT22;61391;50.922;6.928;2023-05-20T08:33:58;19.60;99.90
34698;DHT22;61391;50.922;6.928;2023-05-20T08:36:24;19.20;99.90
34698;DHT22;61391;50.922;6.928;2023-05-20T08:38:50;19.10;99.90
34698;DHT22;61391;50.922;6.928;2023-05-20T08:41:15;19.20;99.90
34698;DHT22;61391;50.922;6.928;2023-05-20T08:43:41;19.60;99.90
34698;DHT22;61391;50.922;6.928;2023-05-20T08:46:08;20.70;99.90
34698;DHT22;61391;50.922;6.928;2023-05-20T08:48:35;21.40;99.90
34698;DHT22;61391;50.922;6.928;2023-05-20T08:51:02;21.70;99.90
34698;DHT22;61391;50.922;6.928;2023-05-20T08:53:28;22.10;99.90
34698;DHT22;61391;50.922;6.928;2023-05-20T08:55:55;22.60;99.90
34698;DHT22;61391;50.922;6.928;2023-05-20T08:58:23;22.40;99.90
34698;DHT22;61391;50.922;6.928;2023-05-20T09:00:50;22.80;99.90
34698;DHT22;61391;50.922;6.928;2023-05-20T09:03:17;23.50;99.90
34698;DHT22;61391;50.922;6.928;2023-05-20T09:05:45;23.50;99.90
34698;DHT22;61391;50.922;6.928;2023-05-20T09:08:11;23.80;99.60
34698;DHT22;61391;50.922;6.928;2023-05-20T09:10:40;23.30;99.90
34698;DHT22;61391;50.922;6.928;2023-05-20T09:13:08;22.80;99.90
34698;DHT22;61391;50.922;6.928;2023-05-20T09:15:35;22.60;99.90
34698;DHT22;61391;50.922;6.928;2023-05-20T09:18:02;22.60;99.90
34698;DHT22;61391;50.922;6.928;2023-05-20T09:20:29;22.80;99.90
34698;DHT22;61391;50.922;6.928;2023-05-20T09:23:04;22.20;99.90
34698;DHT22;61391;50.922;6.928;2023-05-20T09:25:30;22.80;99.90
34698;DHT22;61391;50.922;6.928;2023-05-20T09:27:56;23.50;99.90
34698;DHT22;61391;50.922;6.928;2023-05-20T09:30:22;23.60;99.90
34698;DHT22;61391;50.922;6.928;2023-05-20T09:32:56;23.80;99.90
34698;DHT22;61391;50.922;6.928;2023-05-20T09:35:22;24.50;99.10
34698;DHT22;61391;50.922;6.928;2023-05-20T09:37:54;26.20;95.20
34698;DHT22;61391;50.922;6.928;2023-05-20T09:40:22;27.10;93.40
34698;DHT22;61391;50.922;6.928;2023-05-20T09:43:06;28.30;90.40
34698;DHT22;61391;50.922;6.928;2023-05-20T09:45:32;29.50;88.60
34698;DHT22;61391;50.922;6.928;2023-05-20T09:47:59;29.10;85.00
34698;DHT22;61391;50.922;6.928;2023-05-20T09:50:26;30.00;82.80
34698;DHT22;61391;50.922;6.928;2023-05-20T09:52:53;30.50;80.30
34698;DHT22;61391;50.922;6.928;2023-05-20T09:55:21;30.00;79.70
34698;DHT22;61391;50.922;6.928;2023-05-20T09:57:47;29.90;79.50
34698;DHT22;61391;50.922;6.928;2023-05-20T10:00:14;28.50;80.70
34698;DHT22;61391;50.922;6.928;2023-05-20T10:02:44;27.50;83.70
34698;DHT22;61391;50.922;6.928;2023-05-20T10:05:15;26.60;84.20
34698;DHT22;61391;50.922;6.928;2023-05-20T10:21:31;24.90;91.50
34698;DHT22;61391;50.922;6.928;2023-05-20T10:24:10;25.00;91.80
34698;DHT22;61391;50.922;6.928;2023-05-20T10:26:41;24.90;91.80
34698;DHT22;61391;50.922;6.928;2023-05-20T10:29:16;25.20;91.40
34698;DHT22;61391;50.922;6.928;2023-05-20T10:31:50;24.70;91.30
34698;DHT22;61391;50.922;6.928;2023-05-20T10:34:17;23.80;93.00
34698;DHT22;61391;50.922;6.928;2023-05-20T10:39:18;23.60;94.50
34698;DHT22;61391;50.922;6.928;2023-05-20T10:41:43;23.50;94.00
34698;DHT22;61391;50.922;6.928;2023-05-20T10:44:09;22.90;95.30
34698;DHT22;61391;50.922;6.928;2023-05-20T10:46:35;22.50;96.30
34698;DHT22;61391;50.922;6.928;2023-05-20T10:49:02;22.40;97.20
34698;DHT22;61391;50.922;6.928;2023-05-20T10:51:29;21.90;98.60
34698;DHT22;61391;50.922;6.928;2023-05-20T10:53:56;21.80;99.70
34698;DHT22;61391;50.922;6.928;2023-05-20T10:56:23;21.70;99.90
34698;DHT22;61391;50.922;6.928;2023-05-20T10:58:51;21.40;99.90
34698;DHT22;61391;50.922;6.928;2023-05-20T11:01:17;21.10;99.90
34698;DHT22;61391;50.922;6.928;2023-05-20T11:03:46;21.20;99.90
34698;DHT22;61391;50.922;6.928;2023-05-20T11:06:17;21.10;99.90
34698;DHT22;61391;50.922;6.928;2023-05-20T11:08:43;21.60;99.90
34698;DHT22;61391;50.922;6.928;2023-05-20T11:11:10;21.60;99.90
34698;DHT22;61391;50.922;6.928;2023-05-20T11:13:36;21.80;99.90
34698;DHT22;61391;50.922;6.928;2023-05-20T11:16:02;21.80;99.90
34698;DHT22;61391;50.922;6.928;2023-05-20T11:18:29;21.40;99.90
34698;DHT22;61391;50.922;6.928;2023-05-20T11:20:55;21.10;99.90
34698;DHT22;61391;50.922;6.928;2023-05-20T11:23:21;21.20;99.90
34698;DHT22;61391;50.922;6.928;2023-05-20T11:25:51;21.40;99.90
34698;DHT22;61391;50.922;6.928;2023-05-20T11:28:18;22.30;99.90
34698;DHT22;61391;50.922;6.928;2023-05-20T11:30:44;22.50;99.90
34698;DHT22;61391;50.922;6.928;2023-05-20T11:33:15;22.00;99.90
34698;DHT22;61391;50.922;6.928;2023-05-20T11:35:49;21.70;99.90
34698;DHT22;61391;50.922;6.928;2023-05-20T11:38:16;21.20;99.90
34698;DHT22;61391;50.922;6.928;2023-05-20T11:40:43;21.20;99.90
34698;DHT22;61391;50.922;6.928;2023-05-20T11:43:11;21.70;99.90
34698;DHT22;61391;50.922;6.928;2023-05-20T11:45:42;21.70;99.90
34698;DHT22;61391;50.922;6.928;2023-05-20T11:48:08;22.40;99.90
34698;DHT22;61391;50.922;6.928;2023-05-20T11:50:40;22.20;99.90
34698;DHT22;61391;50.922;6.928;2023-05-20T11:53:07;22.50;99.90
34698;DHT22;61391;50.922;6.928;2023-05-20T11:55:43;22.80;99.90
34698;DHT22;61391;50.922;6.928;2023-05-20T11:58:09;22.30;99.90
34698;DHT22;61391;50.922;6.928;2023-05-20T12:00:35;22.10;99.90
34698;DHT22;61391;50.922;6.928;2023-05-20T12:03:01;22.00;99.90
34698;DHT22;61391;50.922;6.928;2023-05-20T12:05:26;21.60;99.90
34698;DHT22;61391;50.922;6.928;2023-05-20T12:07:52;21.40;99.90
34698;DHT22;61391;50.922;6.928;2023-05-20T12:10:18;21.40;99.90
34698;DHT22;61391;50.922;6.928;2023-05-20T12:16:07;21.70;99.90
34698;DHT22;61391;50.922;6.928;2023-05-20T12:18:33;21.90;99.90
34698;DHT22;61391;50.922;6.928;2023-05-20T12:20:59;22.00;99.90
34698;DHT22;61391;50.922;6.928;2023-05-20T12:23:25;22.50;99.90
34698;DHT22;61391;50.922;6.928;2023-05-20T12:25:51;22.10;99.90
34698;DHT22;61391;50.922;6.928;2023-05-20T12:28:16;22.30;99.90
34698;DHT22;61391;50.922;6.928;2023-05-20T12:30:42;22.00;99.90
34698;DHT22;61391;50.922;6.928;2023-05-20T12:33:08;21.70;99.90
34698;DHT22;61391;50.922;6.928;2023-05-20T12:38:56;21.60;99.90
34698;DHT22;61391;50.922;6.928;2023-05-20T12:41:21;21.60;99.90
34698;DHT22;61391;50.922;6.928;2023-05-20T12:43:47;21.90;99.90
34698;DHT22;61391;50.922;6.928;2023-05-20T12:49:35;21.50;99.90
34698;DHT22;61391;50.922;6.928;2023-05-20T12:52:00;21.60;99.90
34698;DHT22;61391;50.922;6.928;2023-05-20T12:54:26;21.60;99.90
34698;DHT22;61391;50.922;6.928;2023-05-20T12:56:53;21.20;99.90
34698;DHT22;61391;50.922;6.928;2023-05-20T13:02:41;21.20;99.90
34698;DHT22;61391;50.922;6.928;2023-05-20T13:05:08;21.20;99.90
34698;DHT22;61391;50.922;6.928;2023-05-20T13:07:34;21.60;99.90
34698;DHT22;61391;50.922;6.928;2023-05-20T13:10:00;21.30;99.90
34698;DHT22;61391;50.922;6.928;2023-05-20T13:12:26;21.00;99.90
34698;DHT22;61391;50.922;6.928;2023-05-20T13:14:51;20.90;99.90
34698;DHT22;61391;50.922;6.928;2023-05-20T13:17:44;20.80;99.90
34698;DHT22;61391;50.922;6.928;2023-05-20T13:23:33;20.70;99.90
34698;DHT22;61391;50.922;6.928;2023-05-20T13:26:03;20.40;99.90
34698;DHT22;61391;50.922;6.928;2023-05-20T13:28:29;20.30;99.90
34698;DHT22;61391;50.922;6.928;2023-05-20T13:30:58;20.30;99.90
34698;DHT22;61391;50.922;6.928;2023-05-20T13:33:25;20.60;99.90
34698;DHT22;61391;50.922;6.928;2023-05-20T13:35:53;20.60;99.90
34698;DHT22;61391;50.922;6.928;2023-05-20T13:38:22;20.50;99.90
34698;DHT22;61391;50.922;6.928;2023-05-20T13:44:14;20.40;99.90
34698;DHT22;61391;50.922;6.928;2023-05-20T13:46:45;20.80;99.90
34698;DHT22;61391;50.922;6.928;2023-05-20T13:49:36;20.90;99.90
34698;DHT22;61391;50.922;6.928;2023-05-20T13:55:39;21.00;99.90
34698;DHT22;61391;50.922;6.928;2023-05-20T13:58:10;20.90;99.90
34698;DHT22;61391;50.922;6.928;2023-05-20T14:01:18;20.90;99.90
34698;DHT22;61391;50.922;6.928;2023-05-20T14:03:46;20.90;99.90
34698;DHT22;61391;50.922;6.928;2023-05-20T14:06:16;21.00;99.90
34698;DHT22;61391;50.922;6.928;2023-05-20T14:08:44;20.70;99.90
34698;DHT22;61391;50.922;6.928;2023-05-20T14:11:20;20.60;99.90
34698;DHT22;61391;50.922;6.928;2023-05-20T14:14:05;20.50;99.90
34698;DHT22;61391;50.922;6.928;2023-05-20T14:16:42;20.40;99.90
34698;DHT22;61391;50.922;6.928;2023-05-20T14:19:08;20.50;99.90
34698;DHT22;61391;50.922;6.928;2023-05-20T14:21:46;20.50;99.90
34698;DHT22;61391;50.922;6.928;2023-05-20T14:24:17;20.80;99.90
34698;DHT22;61391;50.922;6.928;2023-05-20T14:30:15;20.90;99.90
34698;DHT22;61391;50.922;6.928;2023-05-20T14:32:47;20.50;99.90
34698;DHT22;61391;50.922;6.928;2023-05-20T14:38:51;20.30;99.90
34698;DHT22;61391;50.922;6.928;2023-05-20T14:41:22;20.40;99.90
34698;DHT22;61391;50.922;6.928;2023-05-20T14:43:57;20.40;99.90
34698;DHT22;61391;50.922;6.928;2023-05-20T14:46:27;20.30;99.90
34698;DHT22;61391;50.922;6.928;2023-05-20T14:48:59;20.40;99.90
34698;DHT22;61391;50.922;6.928;2023-05-20T14:52:10;20.30;99.90
34698;DHT22;61391;50.922;6.928;2023-05-20T14:54:41;20.40;99.90
34698;DHT22;61391;50.922;6.928;2023-05-20T15:00:37;20.30;99.90
34698;DHT22;61391;50.922;6.928;2023-05-20T15:03:25;20.20;99.90
34698;DHT22;61391;50.922;6.928;2023-05-20T15:06:15;20.20;99.90
34698;DHT22;61391;50.922;6.928;2023-05-20T15:12:32;19.90;99.90
34698;DHT22;61391;50.922;6.928;2023-05-20T15:14:59;19.70;99.90
34698;DHT22;61391;50.922;6.928;2023-05-20T15:17:36;19.70;99.90
34698;DHT22;61391;50.922;6.928;2023-05-20T15:20:36;19.80;99.90
34698;DHT22;61391;50.922;6.928;2023-05-20T15:23:37;19.80;99.90
34698;DHT22;61391;50.922;6.928;2023-05-20T15:26:21;19.60;99.90
34698;DHT22;61391;50.922;6.928;2023-05-20T15:32:10;19.50;99.90
34698;DHT22;61391;50.922;6.928;2023-05-20T15:34:49;19.70;99.90
34698;DHT22;61391;50.922;6.928;2023-05-20T15:37:17;19.70;99.90
34698;DHT22;61391;50.922;6.928;2023-05-20T15:39:48;19.80;99.90
34698;DHT22;61391;50.922;6.928;2023-05-20T15:42:15;19.70;99.90
34698;DHT22;61391;50.922;6.928;2023-05-20T15:44:47;19.50;99.90
34698;DHT22;61391;50.922;6.928;2023-05-20T15:47:34;19.50;99.90
34698;DHT22;61391;50.922;6.928;2023-05-20T15:50:01;19.60;99.90
34698;DHT22;61391;50.922;6.928;2023-05-20T15:52:31;19.50;99.90
34698;DHT22;61391;50.922;6.928;2023-05-20T15:58:26;19.80;99.90
34698;DHT22;61391;50.922;6.928;2023-05-20T16:01:01;19.60;99.90
34698;DHT22;61391;50.922;6.928;2023-05-20T16:03:27;19.50;99.90
34698;DHT22;61391;50.922;6.928;2023-05-20T16:06:24;19.50;99.90
34698;DHT22;61391;50.922;6.928;2023-05-20T16:08:56;19.50;99.90
34698;DHT22;61391;50.922;6.928;2023-05-20T16:11:30;19.40;99.90
34698;DHT22;61391;50.922;6.928;2023-05-20T16:14:07;19.70;99.90
34698;DHT22;61391;50.922;6.928;2023-05-20T16:16:56;19.60;99.90
34698;DHT22;61391;50.922;6.928;2023-05-20T16:19:27;19.60;99.90
34698;DHT22;61391;50.922;6.928;2023-05-20T16:25:06;19.40;99.90
34698;DHT22;61391;50.922;6.928;2023-05-20T16:27:41;19.30;99.90
34698;DHT22;61391;50.922;6.928;2023-05-20T16:30:26;19.30;99.90
34698;DHT22;61391;50.922;6.928;2023-05-20T16:33:12;19.50;99.90
34698;DHT22;61391;50.922;6.928;2023-05-20T16:35:56;19.40;99.90
34698;DHT22;61391;50.922;6.928;2023-05-20T16:39:12;19.40;99.90
34698;DHT22;61391;50.922;6.928;2023-05-20T16:45:35;19.60;99.90
34698;DHT22;61391;50.922;6.928;2023-05-20T16:51:49;19.20;99.90
34698;DHT22;61391;50.922;6.928;2023-05-20T16:54:37;19.10;99.90
34698;DHT22;61391;50.922;6.928;2023-05-20T16:57:06;19.30;99.90
34698;DHT22;61391;50.922;6.928;2023-05-20T16:59:35;19.30;99.90
34698;DHT22;61391;50.922;6.928;2023-05-20T17:02:03;19.10;99.90
34698;DHT22;61391;50.922;6.928;2023-05-20T17:04:28;19.30;99.90
34698;DHT22;61391;50.922;6.928;2023-05-20T17:06:54;19.20;99.90
34698;DHT22;61391;50.922;6.928;2023-05-20T17:09:21;19.20;99.90